Time,TemperatureF,DewpointF,PressureIn,WindDirection,WindDirectionDegrees,WindSpeedMPH,WindSpeedGustMPH,Humidity,HourlyPrecipIn,Conditions,Clouds,dailyrainin,SoftwareType,DateUTC
2013-09-26 00:14:00,45.7,44.0,29.92,SSE,157,0.0,0.0,93,0.00,,,0.00,weatherlink.com 1.10,2013-09-26 04:14:00,
2013-09-26 00:29:00,45.5,44.0,29.92,SSE,157,0.0,0.0,93,0.00,,,0.00,weatherlink.com 1.10,2013-09-26 04:29:00,
2013-09-26 00:44:00,44.9,43.0,29.92,SSE,157,0.0,0.0,93,0.00,,,0.00,weatherlink.com 1.10,2013-09-26 04:44:00,
2013-09-26 00:59:00,44.8,43.0,29.92,SSE,157,0.0,0.0,93,0.00,,,0.00,weatherlink.com 1.10,2013-09-26 04:59:00,
2013-09-26 01:14:00,44.4,43.0,29.92,SSE,157,0.0,0.0,93,0.00,,,0.00,weatherlink.com 1.10,2013-09-26 05:14:00,
2013-09-26 01:29:00,44.2,42.0,29.92,SSE,157,0.0,0.0,93,0.00,,,0.00,weatherlink.com 1.10,2013-09-26 05:29:00,
2013-09-26 01:44:00,43.8,42.0,29.92,SSE,157,0.0,0.0,94,0.00,,,0.00,weatherlink.com 1.10,2013-09-26 05:44:00,
2013-09-26 01:59:00,43.9,42.0,29.92,SSE,157,0.0,0.0,94,0.00,,,0.00,weatherlink.com 1.10,2013-09-26 05:59:00,
2013-09-26 02:14:00,43.9,42.0,29.92,SSE,157,0.0,0.0,94,0.00,,,0.00,weatherlink.com 1.10,2013-09-26 06:14:00,
2013-09-26 02:29:00,44.0,42.0,29.91,SSE,158,0.0,0.0,94,0.00,,,0.00,weatherlink.com 1.10,2013-09-26 06:29:00,
2013-09-26 02:44:00,43.8,42.0,29.91,SSE,157,0.0,0.0,94,0.00,,,0.00,weatherlink.com 1.10,2013-09-26 06:44:00,
2013-09-26 02:59:00,43.9,42.0,29.91,SSE,157,0.0,0.0,94,0.00,,,0.00,weatherlink.com 1.10,2013-09-26 06:59:00,
2013-09-26 03:14:00,44.1,43.0,29.91,SSE,158,0.0,0.0,94,0.00,,,0.00,weatherlink.com 1.10,2013-09-26 07:14:00,
2013-09-26 03:29:00,44.2,43.0,29.92,SSE,158,0.0,0.0,95,0.00,,,0.00,weatherlink.com 1.10,2013-09-26 07:29:00,
2013-09-26 03:44:00,44.0,42.0,29.92,SSE,158,0.0,0.0,94,0.00,,,0.00,weatherlink.com 1.10,2013-09-26 07:44:00,
2013-09-26 03:59:00,44.0,42.0,29.92,SSE,158,0.0,0.0,94,0.00,,,0.00,weatherlink.com 1.10,2013-09-26 07:59:00,
2013-09-26 04:14:00,44.1,43.0,29.92,SSE,157,0.0,0.0,94,0.00,,,0.00,weatherlink.com 1.10,2013-09-26 08:14:00,
2013-09-26 04:29:00,44.1,43.0,29.93,SSE,157,0.0,0.0,95,0.00,,,0.00,weatherlink.com 1.10,2013-09-26 08:29:00,
2013-09-26 04:44:00,44.1,43.0,29.93,SSE,157,0.0,0.0,94,0.00,,,0.00,weatherlink.com 1.10,2013-09-26 08:44:00,
2013-09-26 04:59:00,45.5,44.0,29.93,SSE,154,0.0,0.0,95,0.00,,,0.00,weatherlink.com 1.10,2013-09-26 08:59:00,
2013-09-26 05:14:00,46.7,46.0,29.93,SSE,154,0.0,0.0,96,0.00,,,0.00,weatherlink.com 1.10,2013-09-26 09:14:00,
2013-09-26 05:29:00,46.0,45.0,29.93,SSE,154,0.0,0.0,95,0.00,,,0.00,weatherlink.com 1.10,2013-09-26 09:29:00,
2013-09-26 05:44:00,45.2,44.0,29.93,SSE,154,0.0,0.0,94,0.00,,,0.00,weatherlink.com 1.10,2013-09-26 09:44:00,
2013-09-26 05:59:00,45.1,44.0,29.93,SSE,154,0.0,0.0,94,0.00,,,0.00,weatherlink.com 1.10,2013-09-26 09:59:00,
2013-09-26 06:14:00,45.1,44.0,29.94,SSE,154,0.0,0.0,94,0.00,,,0.00,weatherlink.com 1.10,2013-09-26 10:14:00,
2013-09-26 06:29:00,45.1,44.0,29.94,SSE,154,0.0,0.0,94,0.00,,,0.00,weatherlink.com 1.10,2013-09-26 10:29:00,
2013-09-26 06:44:00,45.1,44.0,29.94,SSE,154,0.0,0.0,95,0.00,,,0.00,weatherlink.com 1.10,2013-09-26 10:44:00,
2013-09-26 06:59:00,45.3,44.0,29.95,SSE,154,0.0,0.0,95,0.00,,,0.00,weatherlink.com 1.10,2013-09-26 10:59:00,
2013-09-26 07:14:00,45.7,44.0,29.95,SSE,155,0.0,0.0,95,0.00,,,0.00,weatherlink.com 1.10,2013-09-26 11:14:00,
2013-09-26 07:29:00,46.1,45.0,29.96,SSE,154,0.0,0.0,95,0.00,,,0.00,weatherlink.com 1.10,2013-09-26 11:29:00,
2013-09-26 07:44:00,47.2,46.0,29.96,SSE,154,0.0,0.0,96,0.00,,,0.00,weatherlink.com 1.10,2013-09-26 11:44:00,
2013-09-26 07:59:00,48.8,48.0,29.96,SSE,154,0.0,0.0,96,0.00,,,0.00,weatherlink.com 1.10,2013-09-26 11:59:00,
2013-09-26 08:14:00,51.2,50.0,29.97,SSE,150,0.0,0.0,96,0.00,,,0.00,weatherlink.com 1.10,2013-09-26 12:14:00,
2013-09-26 08:29:00,53.3,52.0,29.97,North,2,1.0,2.0,96,0.00,,,0.00,weatherlink.com 1.10,2013-09-26 12:29:00,
2013-09-26 08:44:00,55.5,55.0,29.97,NNE,15,2.0,2.0,97,0.00,,,0.00,weatherlink.com 1.10,2013-09-26 12:44:00,
2013-09-26 09:00:00,58.0,57.0,29.98,East,95,1.0,2.0,97,0.00,,,0.00,weatherlink.com 1.10,2013-09-26 13:00:00,
2013-09-26 09:15:00,61.1,59.0,29.98,NE,34,2.0,4.0,92,0.00,,,0.00,weatherlink.com 1.10,2013-09-26 13:15:00,
2013-09-26 09:30:00,63.7,59.0,29.98,NNE,15,3.0,5.0,85,0.00,,,0.00,weatherlink.com 1.10,2013-09-26 13:30:00,
2013-09-26 09:45:00,65.0,59.0,29.98,ENE,69,2.0,7.0,80,0.00,,,0.00,weatherlink.com 1.10,2013-09-26 13:45:00,
2013-09-26 10:00:00,65.8,58.0,29.98,ENE,60,4.0,6.0,76,0.00,,,0.00,weatherlink.com 1.10,2013-09-26 14:00:00,
2013-09-26 10:15:00,65.7,58.0,29.99,ENE,75,3.0,6.0,76,0.00,,,0.00,weatherlink.com 1.10,2013-09-26 14:15:00,
2013-09-26 11:00:00,69.2,58.0,29.99,NNW,343,3.0,7.0,67,0.00,,,0.00,weatherlink.com 1.10,2013-09-26 15:00:00,
2013-09-26 11:15:00,69.4,56.0,29.99,ENE,58,6.0,8.0,62,0.00,,,0.00,weatherlink.com 1.10,2013-09-26 15:15:00,
2013-09-26 11:30:00,70.6,56.0,29.99,NE,37,6.0,9.0,61,0.00,,,0.00,weatherlink.com 1.10,2013-09-26 15:30:00,
2013-09-26 11:45:00,70.7,56.0,29.99,East,99,4.0,9.0,59,0.00,,,0.00,weatherlink.com 1.10,2013-09-26 15:45:00,
2013-09-26 12:00:00,70.9,56.0,29.99,ENE,57,9.0,10.0,59,0.00,,,0.00,weatherlink.com 1.10,2013-09-26 16:00:00,
2013-09-26 12:15:00,70.9,56.0,29.99,ESE,117,1.0,7.0,60,0.00,,,0.00,weatherlink.com 1.10,2013-09-26 16:15:00,
2013-09-26 12:30:00,70.6,57.0,29.99,NNE,22,4.0,11.0,63,0.00,,,0.00,weatherlink.com 1.10,2013-09-26 16:30:00,
2013-09-26 12:45:00,68.1,57.0,29.99,NNE,17,9.0,9.0,67,0.00,,,0.00,weatherlink.com 1.10,2013-09-26 16:45:00,
2013-09-26 13:00:00,69.2,58.0,29.99,NE,48,6.0,6.0,67,0.00,,,0.00,weatherlink.com 1.10,2013-09-26 17:00:00,
2013-09-26 13:15:00,70.5,57.0,29.98,NE,35,4.0,7.0,63,0.00,,,0.00,weatherlink.com 1.10,2013-09-26 17:15:00,
2013-09-26 13:30:00,71.6,58.0,29.98,ESE,121,2.0,9.0,62,0.00,,,0.00,weatherlink.com 1.10,2013-09-26 17:30:00,
2013-09-26 13:45:00,71.7,56.0,29.98,NW,317,1.0,6.0,59,0.00,,,0.00,weatherlink.com 1.10,2013-09-26 17:45:00,
2013-09-26 14:15:00,70.3,57.0,29.98,ESE,105,0.0,4.0,64,0.00,,,0.00,weatherlink.com 1.10,2013-09-26 18:15:00,
2013-09-26 14:30:00,71.1,58.0,29.98,East,96,2.0,4.0,63,0.00,,,0.00,weatherlink.com 1.10,2013-09-26 18:30:00,
2013-09-26 14:45:00,70.2,57.0,29.98,North,4,1.0,3.0,64,0.00,,,0.00,weatherlink.com 1.10,2013-09-26 18:45:00,
2013-09-26 15:00:00,70.0,58.0,29.98,NNE,22,2.0,2.0,67,0.00,,,0.00,weatherlink.com 1.10,2013-09-26 19:00:00,
2013-09-26 15:16:00,69.5,58.0,29.98,NE,51,3.0,5.0,67,0.00,,,0.00,weatherlink.com 1.10,2013-09-26 19:16:00,
2013-09-26 15:30:00,70.2,58.0,29.98,ENE,63,2.0,5.0,65,0.00,,,0.00,weatherlink.com 1.10,2013-09-26 19:30:00,
2013-09-26 15:45:00,69.8,58.0,29.98,NNE,14,4.0,5.0,67,0.00,,,0.00,weatherlink.com 1.10,2013-09-26 19:45:00,
2013-09-26 16:00:00,69.5,58.0,29.98,NE,41,3.0,5.0,68,0.00,,,0.00,weatherlink.com 1.10,2013-09-26 20:00:00,
2013-09-26 16:15:00,68.1,59.0,29.99,NNE,25,2.0,6.0,72,0.00,,,0.00,weatherlink.com 1.10,2013-09-26 20:15:00,
2013-09-26 16:30:00,67.0,59.0,29.99,NE,41,2.0,4.0,76,0.00,,,0.00,weatherlink.com 1.10,2013-09-26 20:30:00,
2013-09-26 16:45:00,66.4,59.0,29.99,NE,50,1.0,3.0,78,0.00,,,0.00,weatherlink.com 1.10,2013-09-26 20:45:00,
2013-09-26 17:15:00,66.7,60.0,29.99,NE,49,1.0,2.0,80,0.00,,,0.00,weatherlink.com 1.10,2013-09-26 21:15:00,
2013-09-26 17:30:00,66.9,59.0,30.00,ENE,65,2.0,6.0,76,0.00,,,0.00,weatherlink.com 1.10,2013-09-26 21:30:00,
2013-09-26 17:45:00,66.6,59.0,30.00,East,82,1.0,5.0,77,0.00,,,0.00,weatherlink.com 1.10,2013-09-26 21:45:00,
2013-09-26 18:00:00,66.2,58.0,30.00,ESE,105,2.0,5.0,75,0.00,,,0.00,weatherlink.com 1.10,2013-09-26 22:00:00,
2013-09-26 18:16:00,65.7,58.0,30.01,ENE,65,3.0,4.0,77,0.00,,,0.00,weatherlink.com 1.10,2013-09-26 22:16:00,
2013-09-26 18:31:00,65.2,59.0,30.01,ENE,70,1.0,3.0,79,0.00,,,0.00,weatherlink.com 1.10,2013-09-26 22:31:00,
2013-09-26 18:46:00,63.7,58.0,30.01,NE,43,1.0,2.0,82,0.00,,,0.00,weatherlink.com 1.10,2013-09-26 22:46:00,
2013-09-26 19:01:00,61.4,57.0,30.02,NE,43,0.0,1.0,86,0.00,,,0.00,weatherlink.com 1.10,2013-09-26 23:01:00,
2013-09-26 19:16:00,59.7,57.0,30.02,NE,43,0.0,0.0,89,0.00,,,0.00,weatherlink.com 1.10,2013-09-26 23:16:00,
2013-09-26 19:31:00,57.6,55.0,30.02,NE,43,0.0,1.0,90,0.00,,,0.00,weatherlink.com 1.10,2013-09-26 23:31:00,
2013-09-26 19:46:00,56.0,54.0,30.03,NE,43,0.0,1.0,91,0.00,,,0.00,weatherlink.com 1.10,2013-09-26 23:46:00,
2013-09-26 20:01:00,55.4,53.0,30.03,NE,43,0.0,0.0,91,0.00,,,0.00,weatherlink.com 1.10,2013-09-27 00:01:00,
2013-09-26 20:16:00,55.0,53.0,30.04,NE,43,0.0,0.0,91,0.00,,,0.00,weatherlink.com 1.10,2013-09-27 00:16:00,
2013-09-26 20:31:00,54.2,52.0,30.04,NE,43,0.0,0.0,91,0.00,,,0.00,weatherlink.com 1.10,2013-09-27 00:31:00,
2013-09-26 20:46:00,53.9,52.0,30.04,NE,43,0.0,0.0,92,0.00,,,0.00,weatherlink.com 1.10,2013-09-27 00:46:00,
2013-09-26 21:01:00,53.1,51.0,30.05,NE,43,0.0,0.0,92,0.00,,,0.00,weatherlink.com 1.10,2013-09-27 01:01:00,
2013-09-26 21:16:00,52.2,50.0,30.05,NE,43,0.0,0.0,92,0.00,,,0.00,weatherlink.com 1.10,2013-09-27 01:16:00,
2013-09-26 21:31:00,51.6,49.0,30.05,NE,43,0.0,0.0,92,0.00,,,0.00,weatherlink.com 1.10,2013-09-27 01:31:00,
2013-09-26 21:46:00,51.3,49.0,30.05,NE,43,0.0,0.0,92,0.00,,,0.00,weatherlink.com 1.10,2013-09-27 01:46:00,
2013-09-26 22:01:00,50.7,49.0,30.06,NE,43,0.0,0.0,92,0.00,,,0.00,weatherlink.com 1.10,2013-09-27 02:01:00,
2013-09-26 22:16:00,50.2,48.0,30.06,NE,43,0.0,0.0,92,0.00,,,0.00,weatherlink.com 1.10,2013-09-27 02:16:00,
2013-09-26 22:31:00,49.6,47.0,30.06,NE,43,0.0,0.0,92,0.00,,,0.00,weatherlink.com 1.10,2013-09-27 02:31:00,
2013-09-26 22:46:00,49.4,48.0,30.06,NE,42,0.0,0.0,93,0.00,,,0.00,weatherlink.com 1.10,2013-09-27 02:46:00,
2013-09-26 23:01:00,49.0,47.0,30.06,NE,43,0.0,0.0,93,0.00,,,0.00,weatherlink.com 1.10,2013-09-27 03:01:00,
2013-09-26 23:16:00,48.6,47.0,30.06,NE,43,0.0,0.0,93,0.00,,,0.00,weatherlink.com 1.10,2013-09-27 03:16:00,
2013-09-26 23:31:00,48.5,47.0,30.06,NE,43,0.0,0.0,93,0.00,,,0.00,weatherlink.com 1.10,2013-09-27 03:31:00,
2013-09-26 23:46:00,48.0,46.0,30.07,NE,43,0.0,0.0,93,0.00,,,0.00,weatherlink.com 1.10,2013-09-27 03:46:00,